Time;durP1;ratioP1;P1;durP2;ratioP2;P2;SDS_P1;SDS_P2;PMS_P1;PMS_P2;Temp;Humidity;BMP_temperature;BMP_pressure;BME280_temperature;BME280_humidity;BME280_pressure;Samples;Min_cycle;Max_cycle;Signal;HPM_P1;HPM_P2
2021/03/06 00:00:59;;;;;;;;;;;-1.80;93.80;;;;;;5087336;28;19912;-67
2021/03/06 00:03:25;;;;;;;;;;;-1.80;93.80;;;;;;5096590;28;19924;-68
2021/03/06 00:05:50;;;;;;;;;;;-1.80;93.60;;;;;;5095159;28;19916;-68
2021/03/06 00:08:16;;;;;;;;;;;-1.80;93.40;;;;;;5089772;28;19920;-68
2021/03/06 00:10:42;;;;;;;;;;;-1.80;93.40;;;;;;5095915;28;20316;-68
2021/03/06 00:13:07;;;;;;;;;;;-1.70;93.00;;;;;;5095155;28;20271;-68
2021/03/06 00:15:33;;;;;;;;;;;-1.70;93.10;;;;;;5087950;28;20001;-68
2021/03/06 00:17:58;;;;;;;;;;;-1.70;93.00;;;;;;5080575;28;19959;-68
2021/03/06 00:20:24;;;;;;;;;;;-1.80;93.20;;;;;;5088422;28;19927;-70
2021/03/06 00:22:50;;;;;;;;;;;-1.80;93.30;;;;;;5076919;28;20228;-69
2021/03/06 00:25:17;;;;;;;;;;;-1.80;93.20;;;;;;5093297;28;20305;-70
2021/03/06 00:27:43;;;;;;;;;;;-1.80;93.40;;;;;;5089002;28;19954;-69
2021/03/06 00:30:09;;;;;;;;;;;-1.80;93.30;;;;;;5094869;28;20374;-69
2021/03/06 00:32:35;;;;;;;;;;;-1.80;93.20;;;;;;5092294;28;19943;-69
2021/03/06 00:35:00;;;;;;;;;;;-1.80;93.10;;;;;;5094236;28;20206;-69
2021/03/06 00:37:26;;;;;;;;;;;-1.80;92.80;;;;;;5083964;28;19920;-69
2021/03/06 00:39:51;;;;;;;;;;;-1.80;92.50;;;;;;5119899;27;19916;-69
2021/03/06 00:42:17;;;;;;;;;;;-1.90;92.60;;;;;;5092642;28;19918;-69
2021/03/06 00:44:42;;;;;;;;;;;-1.90;92.30;;;;;;5093924;28;20013;-70
2021/03/06 00:47:08;;;;;;;;;;;-1.90;91.60;;;;;;5093723;28;19951;-69
2021/03/06 00:49:34;;;;;;;;;;;-1.90;91.50;;;;;;5094661;28;19948;-69
2021/03/06 00:52:00;;;;;;;;;;;-1.90;91.00;;;;;;5093525;28;20278;-70
2021/03/06 00:54:26;;;;;;;;;;;-2.00;90.90;;;;;;5090721;28;19912;-69
2021/03/06 00:56:51;;;;;;;;;;;-2.00;90.40;;;;;;5094232;28;20026;-70
2021/03/06 00:59:17;;;;;;;;;;;-2.00;89.90;;;;;;5084381;28;19912;-70
2021/03/06 01:01:43;;;;;;;;;;;-2.00;89.90;;;;;;5088843;28;19957;-70
2021/03/06 01:04:09;;;;;;;;;;;-2.00;89.30;;;;;;5095339;28;19947;-70
2021/03/06 01:06:34;;;;;;;;;;;-2.00;89.00;;;;;;5091841;28;19959;-69
2021/03/06 01:09:00;;;;;;;;;;;-2.00;88.70;;;;;;5093208;28;20301;-70
2021/03/06 01:11:26;;;;;;;;;;;-2.00;88.80;;;;;;5094213;28;19915;-70
2021/03/06 01:13:51;;;;;;;;;;;-2.00;88.70;;;;;;5093642;28;19912;-70
2021/03/06 01:16:17;;;;;;;;;;;-2.10;88.80;;;;;;5079836;28;19925;-69
2021/03/06 01:18:42;;;;;;;;;;;-2.10;88.80;;;;;;5084048;28;19920;-69
2021/03/06 01:21:08;;;;;;;;;;;-2.10;88.60;;;;;;5087458;28;19949;-69
2021/03/06 01:23:33;;;;;;;;;;;-2.10;88.40;;;;;;5082910;28;20030;-69
2021/03/06 01:25:59;;;;;;;;;;;-2.10;88.50;;;;;;5083107;28;19995;-70
2021/03/06 01:28:25;;;;;;;;;;;-2.10;88.40;;;;;;5094330;28;19931;-70
2021/03/06 01:30:50;;;;;;;;;;;-2.20;88.60;;;;;;5091851;28;19922;-70
2021/03/06 01:33:16;;;;;;;;;;;-2.20;88.30;;;;;;5089973;28;19970;-70
2021/03/06 01:35:41;;;;;;;;;;;-2.20;88.30;;;;;;5087598;28;19963;-70
2021/03/06 01:38:07;;;;;;;;;;;-2.20;88.40;;;;;;5084099;28;19940;-70
2021/03/06 01:40:33;;;;;;;;;;;-2.30;88.20;;;;;;5078950;28;19912;-70
2021/03/06 01:43:01;;;;;;;;;;;-2.30;88.40;;;;;;5094458;28;20266;-70
2021/03/06 01:45:27;;;;;;;;;;;-2.40;88.50;;;;;;5093918;28;20172;-70
2021/03/06 01:47:52;;;;;;;;;;;-2.40;88.30;;;;;;5088564;28;19912;-70
2021/03/06 01:50:20;;;;;;;;;;;-2.40;87.90;;;;;;5094443;28;20015;-70
2021/03/06 01:52:46;;;;;;;;;;;-2.50;87.80;;;;;;5093535;28;19948;-70
2021/03/06 01:55:11;;;;;;;;;;;-2.50;87.80;;;;;;5091072;28;19967;-70
2021/03/06 01:57:37;;;;;;;;;;;-2.50;87.20;;;;;;5092908;28;20343;-70
2021/03/06 02:00:04;;;;;;;;;;;-2.50;87.30;;;;;;5093305;28;20224;-70
2021/03/06 02:02:30;;;;;;;;;;;-2.50;87.20;;;;;;5088282;28;19919;-71
2021/03/06 02:04:56;;;;;;;;;;;-2.50;86.90;;;;;;5087357;28;19912;-70
2021/03/06 02:07:21;;;;;;;;;;;-2.60;86.60;;;;;;5094166;28;20312;-69
2021/03/06 02:09:47;;;;;;;;;;;-2.60;86.30;;;;;;5092110;28;19912;-70
2021/03/06 02:12:19;;;;;;;;;;;-2.60;86.30;;;;;;5093279;28;19923;-70
2021/03/06 02:14:44;;;;;;;;;;;-2.60;86.10;;;;;;5101004;28;19925;-70
2021/03/06 02:17:15;;;;;;;;;;;-2.60;85.40;;;;;;5092954;28;19923;-70
2021/03/06 02:19:56;;;;;;;;;;;-2.60;85.50;;;;;;5091891;28;19916;-70
2021/03/06 02:22:24;;;;;;;;;;;-2.70;85.20;;;;;;5090901;28;20018;-70
2021/03/06 02:24:59;;;;;;;;;;;-2.70;85.00;;;;;;5098079;28;20461;-70
2021/03/06 02:27:28;;;;;;;;;;;-2.60;84.40;;;;;;5085466;28;19978;-70
2021/03/06 02:29:56;;;;;;;;;;;-2.70;84.70;;;;;;5092636;28;19912;-70
2021/03/06 02:32:32;;;;;;;;;;;-2.70;84.40;;;;;;5086312;28;20003;-70
2021/03/06 02:35:06;;;;;;;;;;;-2.80;84.50;;;;;;5092030;28;19952;-70
2021/03/06 02:37:33;;;;;;;;;;;-2.80;84.60;;;;;;5098827;28;20327;-69
2021/03/06 02:39:59;;;;;;;;;;;-2.80;84.30;;;;;;5090472;28;20378;-70
2021/03/06 02:42:26;;;;;;;;;;;-2.70;83.90;;;;;;5097552;28;19965;-70
2021/03/06 02:44:52;;;;;;;;;;;-2.70;83.40;;;;;;5098094;28;20347;-69
2021/03/06 02:47:18;;;;;;;;;;;-2.70;83.40;;;;;;5124500;27;20255;-70
2021/03/06 02:49:44;;;;;;;;;;;-2.70;83.70;;;;;;5097205;28;20329;-70
2021/03/06 02:52:10;;;;;;;;;;;-2.70;83.50;;;;;;5094121;28;19935;-70
2021/03/06 02:54:35;;;;;;;;;;;-2.80;83.70;;;;;;5083390;28;20297;-70
2021/03/06 02:57:01;;;;;;;;;;;-2.80;83.80;;;;;;5092616;28;20422;-72
2021/03/06 02:59:26;;;;;;;;;;;-2.80;84.00;;;;;;5091966;28;19916;-69
2021/03/06 03:01:58;;;;;;;;;;;-2.90;84.20;;;;;;5108169;28;19940;-70
2021/03/06 03:04:30;;;;;;;;;;;-2.90;84.40;;;;;;5091000;28;19943;-68
2021/03/06 03:07:00;;;;;;;;;;;-2.90;84.00;;;;;;5095587;28;19995;-68
2021/03/06 03:09:27;;;;;;;;;;;-2.80;83.70;;;;;;5090531;28;19996;-69
2021/03/06 03:11:55;;;;;;;;;;;-2.80;83.60;;;;;;5093734;28;19935;-68
2021/03/06 03:14:24;;;;;;;;;;;-2.80;83.90;;;;;;5088724;28;19920;-68
2021/03/06 03:16:55;;;;;;;;;;;-2.90;83.60;;;;;;5089086;28;20192;-72
2021/03/06 03:19:28;;;;;;;;;;;-2.90;83.50;;;;;;5095349;28;19952;-70
2021/03/06 03:21:58;;;;;;;;;;;-2.90;83.70;;;;;;5084440;28;20233;-70
2021/03/06 03:24:24;;;;;;;;;;;-3.00;84.00;;;;;;5098033;28;19984;-70
2021/03/06 03:26:50;;;;;;;;;;;-3.10;84.40;;;;;;5090409;28;20317;-70
2021/03/06 03:29:16;;;;;;;;;;;-3.20;84.90;;;;;;5086976;28;19955;-70
2021/03/06 03:31:46;;;;;;;;;;;-3.20;85.00;;;;;;5085512;28;19939;-70
2021/03/06 03:34:12;;;;;;;;;;;-3.20;85.10;;;;;;5091274;28;19912;-71
2021/03/06 03:36:38;;;;;;;;;;;-3.20;85.00;;;;;;5087416;28;20261;-70
2021/03/06 03:39:04;;;;;;;;;;;-3.20;85.30;;;;;;5089582;28;20220;-69
2021/03/06 03:41:30;;;;;;;;;;;-3.30;85.80;;;;;;5089591;28;19923;-70
2021/03/06 03:43:58;;;;;;;;;;;-3.30;86.00;;;;;;5089391;28;19920;-70
2021/03/06 03:46:24;;;;;;;;;;;-3.30;86.50;;;;;;5090214;28;19963;-69
2021/03/06 03:48:50;;;;;;;;;;;-3.30;86.60;;;;;;5088673;28;19947;-70
2021/03/06 03:51:15;;;;;;;;;;;-3.20;86.70;;;;;;5088667;28;20323;-69
2021/03/06 03:53:41;;;;;;;;;;;-3.30;87.20;;;;;;5087062;28;19955;-70
2021/03/06 03:56:07;;;;;;;;;;;-3.50;87.60;;;;;;5087027;28;19918;-70
2021/03/06 03:58:33;;;;;;;;;;;-3.50;88.30;;;;;;5089383;28;20319;-70
2021/03/06 04:00:59;;;;;;;;;;;-3.40;88.70;;;;;;5085297;28;20386;-69
2021/03/06 04:03:26;;;;;;;;;;;-3.40;88.90;;;;;;5088959;28;19920;-70
2021/03/06 04:05:52;;;;;;;;;;;-3.40;89.20;;;;;;5086192;28;19966;-70
2021/03/06 04:08:17;;;;;;;;;;;-3.40;89.40;;;;;;5080297;28;20348;-69
2021/03/06 04:10:43;;;;;;;;;;;-3.40;89.60;;;;;;5083169;28;19916;-70
2021/03/06 04:13:09;;;;;;;;;;;-3.30;89.70;;;;;;5081296;28;19935;-70
2021/03/06 04:15:35;;;;;;;;;;;-3.40;90.00;;;;;;5081555;28;19924;-70
2021/03/06 04:18:01;;;;;;;;;;;-3.40;90.20;;;;;;5087980;28;19927;-70
2021/03/06 04:20:30;;;;;;;;;;;-3.40;90.20;;;;;;5085248;28;20020;-69
2021/03/06 04:22:55;;;;;;;;;;;-3.40;90.40;;;;;;5081324;28;19919;-68
2021/03/06 04:25:23;;;;;;;;;;;-3.40;90.40;;;;;;5085861;28;19924;-69
2021/03/06 04:27:49;;;;;;;;;;;-3.40;90.60;;;;;;5080531;28;19970;-69
2021/03/06 04:30:15;;;;;;;;;;;-3.30;90.50;;;;;;5086268;28;20000;-70
2021/03/06 04:32:40;;;;;;;;;;;-3.30;90.50;;;;;;5083333;28;19923;-69
2021/03/06 04:35:08;;;;;;;;;;;-3.40;90.70;;;;;;5087754;28;19976;-71
2021/03/06 04:37:33;;;;;;;;;;;-3.50;91.20;;;;;;5080469;28;19946;-69
2021/03/06 04:39:59;;;;;;;;;;;-3.50;91.50;;;;;;5083029;28;19925;-70
2021/03/06 04:42:25;;;;;;;;;;;-3.50;91.70;;;;;;5087490;28;19912;-69
2021/03/06 04:44:50;;;;;;;;;;;-3.40;91.80;;;;;;5089015;28;19923;-69
2021/03/06 04:47:17;;;;;;;;;;;-3.40;92.30;;;;;;5079536;28;20332;-68
2021/03/06 04:49:43;;;;;;;;;;;-3.30;92.20;;;;;;5085864;28;20140;-69
2021/03/06 04:52:09;;;;;;;;;;;-3.40;92.40;;;;;;5082924;28;20015;-68
2021/03/06 04:54:34;;;;;;;;;;;-3.30;92.60;;;;;;5081969;28;20202;-69
2021/03/06 04:57:00;;;;;;;;;;;-3.40;92.60;;;;;;5084758;28;19919;-69
2021/03/06 04:59:25;;;;;;;;;;;-3.40;93.00;;;;;;5086895;28;20008;-70
2021/03/06 05:01:51;;;;;;;;;;;-3.50;93.00;;;;;;5083200;28;19977;-69
2021/03/06 05:04:16;;;;;;;;;;;-3.50;93.60;;;;;;5083520;28;19919;-70
2021/03/06 05:06:42;;;;;;;;;;;-3.50;93.80;;;;;;5085892;28;19920;-69
2021/03/06 05:09:07;;;;;;;;;;;-3.50;93.90;;;;;;5090501;28;19948;-69
2021/03/06 05:11:33;;;;;;;;;;;-3.60;93.90;;;;;;5081471;28;19948;-68
2021/03/06 05:13:58;;;;;;;;;;;-3.60;94.20;;;;;;5081730;28;20296;-69
2021/03/06 05:16:24;;;;;;;;;;;-3.60;94.40;;;;;;5080212;28;19920;-69
2021/03/06 05:18:49;;;;;;;;;;;-3.80;94.20;;;;;;5085111;28;20297;-69
2021/03/06 05:21:15;;;;;;;;;;;-3.80;94.90;;;;;;5086530;28;20313;-69
2021/03/06 05:23:40;;;;;;;;;;;-3.90;94.90;;;;;;5081760;28;19916;-69
2021/03/06 05:26:06;;;;;;;;;;;-4.00;95.50;;;;;;5080030;28;19916;-68
2021/03/06 05:28:31;;;;;;;;;;;-3.90;95.70;;;;;;5090209;28;19958;-69
2021/03/06 05:30:57;;;;;;;;;;;-4.00;95.20;;;;;;5082440;28;19912;-69
2021/03/06 05:33:22;;;;;;;;;;;-4.20;94.90;;;;;;5077737;28;19982;-69
2021/03/06 05:35:48;;;;;;;;;;;-4.50;95.30;;;;;;5088132;28;19912;-69
2021/03/06 05:38:14;;;;;;;;;;;-4.60;95.60;;;;;;5087752;28;19938;-69
2021/03/06 05:40:40;;;;;;;;;;;-4.80;96.40;;;;;;5082020;28;19954;-68
2021/03/06 05:43:06;;;;;;;;;;;-5.00;96.50;;;;;;5082219;28;19920;-69
2021/03/06 05:45:32;;;;;;;;;;;-4.90;97.20;;;;;;5082973;28;19923;-69
2021/03/06 05:47:58;;;;;;;;;;;-5.00;97.40;;;;;;5082071;28;20005;-69
2021/03/06 05:50:24;;;;;;;;;;;-5.10;97.30;;;;;;5086298;28;19958;-69
2021/03/06 05:52:51;;;;;;;;;;;-5.20;97.40;;;;;;5084480;28;19927;-68
2021/03/06 05:55:17;;;;;;;;;;;-5.30;97.50;;;;;;5080476;28;19923;-68
2021/03/06 05:57:42;;;;;;;;;;;-5.30;97.90;;;;;;5084794;28;20308;-68
2021/03/06 06:00:08;;;;;;;;;;;-5.20;98.00;;;;;;5089179;28;19912;-70
2021/03/06 06:02:35;;;;;;;;;;;-5.00;98.00;;;;;;5084815;28;19919;-68
2021/03/06 06:05:01;;;;;;;;;;;-5.10;98.00;;;;;;5081749;28;20318;-67
2021/03/06 06:07:27;;;;;;;;;;;-5.00;98.00;;;;;;5088709;28;20209;-68
2021/03/06 06:09:54;;;;;;;;;;;-4.90;98.00;;;;;;5094515;28;19937;-70
2021/03/06 06:12:19;;;;;;;;;;;-4.70;98.00;;;;;;5090401;28;20003;-71
2021/03/06 06:14:45;;;;;;;;;;;-4.70;98.00;;;;;;5084141;28;20289;-70
2021/03/06 06:17:11;;;;;;;;;;;-4.80;98.00;;;;;;5088055;28;20072;-70
2021/03/06 06:19:37;;;;;;;;;;;-4.80;98.00;;;;;;5082272;28;20300;-70
2021/03/06 06:22:16;;;;;;;;;;;-4.90;98.00;;;;;;5085528;28;19915;-69
2021/03/06 06:24:43;;;;;;;;;;;-4.90;98.00;;;;;;5087106;28;19912;-70
2021/03/06 06:27:08;;;;;;;;;;;-4.80;98.00;;;;;;5089025;28;19916;-69
2021/03/06 06:29:35;;;;;;;;;;;-4.70;98.00;;;;;;5092621;28;19938;-69
2021/03/06 06:32:00;;;;;;;;;;;-4.50;98.00;;;;;;5089633;28;20274;-69
2021/03/06 06:34:26;;;;;;;;;;;-4.50;98.00;;;;;;5093703;28;19920;-70
2021/03/06 06:36:51;;;;;;;;;;;-4.40;97.80;;;;;;5085702;28;19908;-70
2021/03/06 06:39:27;;;;;;;;;;;-4.30;98.00;;;;;;5089395;28;19913;-70
2021/03/06 06:41:54;;;;;;;;;;;-4.10;98.00;;;;;;5096589;28;19916;-69
2021/03/06 06:44:20;;;;;;;;;;;-4.00;98.00;;;;;;5092984;28;19908;-69
2021/03/06 06:46:46;;;;;;;;;;;-4.00;97.60;;;;;;5089843;28;19916;-70
2021/03/06 06:49:15;;;;;;;;;;;-4.10;97.10;;;;;;5095595;28;19919;-70
2021/03/06 06:52:00;;;;;;;;;;;-4.10;96.70;;;;;;5087400;28;19959;-70
2021/03/06 06:54:26;;;;;;;;;;;-3.90;97.50;;;;;;5092684;28;20003;-69
2021/03/06 06:57:04;;;;;;;;;;;-3.60;97.90;;;;;;5084972;28;20313;-70
2021/03/06 06:59:30;;;;;;;;;;;-3.40;98.00;;;;;;5085917;28;19926;-70
2021/03/06 07:01:55;;;;;;;;;;;-3.30;97.80;;;;;;5083869;28;20410;-70
2021/03/06 07:04:21;;;;;;;;;;;-3.10;98.00;;;;;;5086173;28;19920;-70
2021/03/06 07:06:56;;;;;;;;;;;-2.90;98.00;;;;;;5077537;28;19928;-70
2021/03/06 07:09:22;;;;;;;;;;;-2.70;97.90;;;;;;5082810;28;19942;-70
2021/03/06 07:11:47;;;;;;;;;;;-2.60;97.70;;;;;;5085215;28;19923;-71
2021/03/06 07:14:31;;;;;;;;;;;-2.40;97.40;;;;;;5083923;28;20003;-70
2021/03/06 07:17:00;;;;;;;;;;;-2.30;97.20;;;;;;5078269;28;19938;-70
2021/03/06 07:19:27;;;;;;;;;;;-2.20;96.90;;;;;;5087866;28;20198;-71
2021/03/06 07:21:53;;;;;;;;;;;-2.10;96.80;;;;;;5080041;28;19917;-71
2021/03/06 07:24:18;;;;;;;;;;;-2.00;96.50;;;;;;5078232;28;19912;-71
2021/03/06 07:26:44;;;;;;;;;;;-1.90;96.20;;;;;;5091863;28;19916;-70
2021/03/06 07:29:10;;;;;;;;;;;-1.80;95.80;;;;;;5091844;28;19913;-71
2021/03/06 07:31:38;;;;;;;;;;;-1.70;95.10;;;;;;5092772;28;20207;-71
2021/03/06 07:34:05;;;;;;;;;;;-1.50;94.20;;;;;;5096729;28;19920;-71
2021/03/06 07:36:31;;;;;;;;;;;-1.40;93.80;;;;;;5097256;28;19998;-71
2021/03/06 07:39:00;;;;;;;;;;;-1.30;93.10;;;;;;5095971;28;20220;-71
2021/03/06 07:41:27;;;;;;;;;;;-1.30;92.50;;;;;;5096362;28;19917;-70
2021/03/06 07:43:53;;;;;;;;;;;-1.20;92.30;;;;;;5096618;28;19919;-71
2021/03/06 07:46:19;;;;;;;;;;;-1.10;91.80;;;;;;5095414;28;19916;-71
2021/03/06 07:48:48;;;;;;;;;;;-1.00;91.50;;;;;;5097053;28;19912;-72
2021/03/06 07:51:14;;;;;;;;;;;-0.90;91.60;;;;;;5097031;28;19919;-71
2021/03/06 07:53:43;;;;;;;;;;;-0.70;90.90;;;;;;5097044;28;19918;-72
2021/03/06 07:56:09;;;;;;;;;;;-0.60;90.70;;;;;;5090035;28;19912;-71
2021/03/06 07:58:47;;;;;;;;;;;-0.50;90.40;;;;;;5096171;28;19912;-70
2021/03/06 08:01:29;;;;;;;;;;;-0.40;89.80;;;;;;5098463;28;19987;-69
2021/03/06 08:03:55;;;;;;;;;;;-0.30;89.30;;;;;;5093485;28;19912;-69
2021/03/06 08:06:22;;;;;;;;;;;-0.20;88.70;;;;;;5096602;28;19926;-69
2021/03/06 08:08:48;;;;;;;;;;;-0.20;88.20;;;;;;5096941;28;20309;-70
2021/03/06 08:11:18;;;;;;;;;;;-0.10;88.00;;;;;;5100133;28;19995;-71
2021/03/06 08:13:46;;;;;;;;;;;0.00;87.70;;;;;;5085165;28;19913;-71
2021/03/06 08:18:50;;;;;;;;;;;0.20;87.10;;;;;;5094644;28;19912;-71
2021/03/06 08:21:27;;;;;;;;;;;0.30;86.90;;;;;;5094137;28;19948;-72
2021/03/06 08:24:26;;;;;;;;;;;0.70;85.90;;;;;;5096133;28;19912;-73
2021/03/06 08:27:07;;;;;;;;;;;1.20;84.80;;;;;;5076666;28;19923;-71
2021/03/06 08:29:36;;;;;;;;;;;2.40;81.40;;;;;;5096015;28;20317;-72
2021/03/06 08:32:07;;;;;;;;;;;3.50;78.30;;;;;;5093646;28;19919;-71
2021/03/06 08:34:44;;;;;;;;;;;3.70;75.50;;;;;;5092756;28;20599;-69
2021/03/06 08:37:16;;;;;;;;;;;4.20;75.00;;;;;;5091224;28;19916;-71
2021/03/06 08:39:42;;;;;;;;;;;4.90;72.90;;;;;;5095543;28;19965;-71
2021/03/06 08:42:08;;;;;;;;;;;4.50;72.50;;;;;;5093107;28;19919;-70
2021/03/06 08:44:34;;;;;;;;;;;4.70;72.10;;;;;;5095307;28;19923;-71
2021/03/06 08:47:00;;;;;;;;;;;4.60;72.40;;;;;;5094900;28;20276;-69
2021/03/06 08:49:26;;;;;;;;;;;4.80;71.90;;;;;;5094944;28;19916;-68
2021/03/06 08:51:53;;;;;;;;;;;5.10;71.60;;;;;;5095790;28;20309;-69
2021/03/06 08:54:22;;;;;;;;;;;5.60;70.60;;;;;;5096723;28;19919;-69
2021/03/06 08:56:48;;;;;;;;;;;6.00;69.60;;;;;;5096792;28;19954;-69
2021/03/06 08:59:13;;;;;;;;;;;5.80;68.80;;;;;;5096148;28;20304;-69
2021/03/06 09:01:39;;;;;;;;;;;5.90;68.90;;;;;;5093870;28;19999;-69
2021/03/06 09:04:05;;;;;;;;;;;5.80;68.70;;;;;;5092188;28;19998;-69
2021/03/06 09:06:34;;;;;;;;;;;5.80;68.00;;;;;;5094872;28;19916;-71
2021/03/06 09:09:00;;;;;;;;;;;5.70;67.10;;;;;;5090587;28;19916;-70
2021/03/06 09:11:28;;;;;;;;;;;5.30;68.20;;;;;;5093321;28;19920;-69
2021/03/06 09:13:54;;;;;;;;;;;5.20;69.20;;;;;;5098049;28;19912;-71
2021/03/06 09:16:19;;;;;;;;;;;5.10;69.30;;;;;;5096175;28;19947;-70
2021/03/06 09:18:45;;;;;;;;;;;5.30;69.60;;;;;;5098216;28;20011;-68
2021/03/06 09:21:15;;;;;;;;;;;5.70;68.90;;;;;;5084114;28;19912;-71
2021/03/06 09:23:41;;;;;;;;;;;6.40;68.00;;;;;;5092558;28;20062;-70
2021/03/06 09:26:09;;;;;;;;;;;7.00;66.60;;;;;;5096540;28;20327;-70
2021/03/06 09:28:35;;;;;;;;;;;8.00;65.00;;;;;;5086050;28;20007;-71
2021/03/06 09:31:10;;;;;;;;;;;8.50;62.20;;;;;;5087464;28;19912;-71
2021/03/06 09:33:37;;;;;;;;;;;9.20;60.90;;;;;;5096658;28;19915;-70
2021/03/06 09:36:07;;;;;;;;;;;9.80;60.50;;;;;;5088372;28;19957;-70
2021/03/06 09:38:33;;;;;;;;;;;9.70;58.70;;;;;;5096600;28;19912;-71
2021/03/06 09:40:59;;;;;;;;;;;9.10;59.80;;;;;;5093053;28;19920;-71
2021/03/06 09:43:30;;;;;;;;;;;8.90;60.20;;;;;;5096356;28;19920;-69
2021/03/06 09:45:56;;;;;;;;;;;9.20;60.50;;;;;;5087788;28;19923;-70
2021/03/06 09:48:22;;;;;;;;;;;9.00;59.50;;;;;;5086419;28;19924;-70
2021/03/06 09:50:48;;;;;;;;;;;9.00;58.90;;;;;;5081655;28;20217;-70
2021/03/06 09:53:15;;;;;;;;;;;8.60;59.00;;;;;;5084244;28;19912;-70
2021/03/06 09:55:41;;;;;;;;;;;7.90;58.70;;;;;;5088885;28;19920;-69
2021/03/06 09:58:19;;;;;;;;;;;8.30;58.30;;;;;;5087713;28;20006;-67
2021/03/06 10:00:45;;;;;;;;;;;8.40;60.20;;;;;;5077996;28;19912;-69
2021/03/06 10:03:10;;;;;;;;;;;9.50;59.50;;;;;;5085076;28;19919;-68
2021/03/06 10:05:36;;;;;;;;;;;9.70;56.80;;;;;;5098786;28;19919;-69
2021/03/06 10:08:02;;;;;;;;;;;9.00;56.80;;;;;;5090228;28;19951;-68
2021/03/06 10:10:28;;;;;;;;;;;9.60;57.60;;;;;;5086701;28;19913;-69
2021/03/06 10:12:55;;;;;;;;;;;9.40;55.10;;;;;;5084832;28;19966;-68
2021/03/06 10:15:21;;;;;;;;;;;8.60;54.90;;;;;;5087542;28;20321;-66
2021/03/06 10:17:47;;;;;;;;;;;8.50;54.70;;;;;;5095233;28;19912;-67
2021/03/06 10:20:13;;;;;;;;;;;8.80;54.80;;;;;;5081046;28;19931;-67
2021/03/06 10:22:48;;;;;;;;;;;8.90;54.00;;;;;;5085325;28;20025;-68
2021/03/06 10:25:24;;;;;;;;;;;9.20;55.80;;;;;;5086790;28;19912;-67
2021/03/06 10:27:50;;;;;;;;;;;9.70;55.10;;;;;;5089623;28;19965;-66
2021/03/06 10:30:23;;;;;;;;;;;10.30;54.90;;;;;;5087385;28;19940;-67
2021/03/06 10:32:51;;;;;;;;;;;10.60;54.00;;;;;;5084658;28;19955;-67
2021/03/06 10:35:32;;;;;;;;;;;11.00;53.70;;;;;;5091832;28;20011;-67
2021/03/06 10:37:58;;;;;;;;;;;10.80;53.60;;;;;;5084919;28;19919;-68
2021/03/06 10:40:59;;;;;;;;;;;10.90;52.00;;;;;;5085204;28;19916;-67
2021/03/06 10:43:33;;;;;;;;;;;10.30;53.60;;;;;;5068217;28;20016;-67
2021/03/06 10:46:12;;;;;;;;;;;11.00;51.80;;;;;;5080068;28;19924;-68
2021/03/06 10:48:37;;;;;;;;;;;11.10;51.30;;;;;;5090254;28;19920;-68
2021/03/06 10:51:04;;;;;;;;;;;11.10;50.70;;;;;;5099297;28;19916;-68
2021/03/06 10:53:30;;;;;;;;;;;11.50;52.70;;;;;;5082297;28;20037;-68
2021/03/06 10:55:56;;;;;;;;;;;11.70;52.70;;;;;;5091070;28;19966;-68
2021/03/06 10:58:41;;;;;;;;;;;11.60;51.70;;;;;;5087668;28;20304;-68
2021/03/06 11:01:06;;;;;;;;;;;11.80;50.40;;;;;;5084504;28;19916;-68
2021/03/06 11:03:39;;;;;;;;;;;11.50;49.60;;;;;;5087665;28;19988;-68
2021/03/06 11:06:04;;;;;;;;;;;10.90;49.10;;;;;;5083947;28;19916;-67
2021/03/06 11:08:31;;;;;;;;;;;10.70;50.40;;;;;;5085210;28;19919;-69
2021/03/06 11:10:57;;;;;;;;;;;10.80;49.10;;;;;;5091673;28;19919;-68
2021/03/06 11:13:22;;;;;;;;;;;10.80;48.20;;;;;;5084818;28;19917;-68
2021/03/06 11:15:52;;;;;;;;;;;11.40;46.10;;;;;;5077835;28;19924;-68
2021/03/06 11:18:18;;;;;;;;;;;11.40;47.70;;;;;;5084244;28;19966;-69
2021/03/06 11:20:44;;;;;;;;;;;11.20;46.50;;;;;;5091918;28;20254;-68
2021/03/06 11:23:09;;;;;;;;;;;11.30;47.60;;;;;;5097453;28;19920;-69
2021/03/06 11:25:35;;;;;;;;;;;11.50;44.80;;;;;;5097827;28;19912;-68
2021/03/06 11:28:02;;;;;;;;;;;11.80;45.60;;;;;;5079926;28;20206;-68
2021/03/06 11:30:54;;;;;;;;;;;11.80;45.20;;;;;;5083862;28;19919;-68
2021/03/06 11:33:19;;;;;;;;;;;10.90;48.10;;;;;;5096780;28;19920;-69
2021/03/06 11:35:46;;;;;;;;;;;10.10;49.60;;;;;;5097825;28;19908;-69
2021/03/06 11:38:12;;;;;;;;;;;10.40;49.40;;;;;;5091238;28;19912;-69
2021/03/06 11:40:41;;;;;;;;;;;10.70;50.80;;;;;;5097723;28;20312;-68
2021/03/06 11:43:10;;;;;;;;;;;11.30;49.70;;;;;;5088282;28;19919;-69
2021/03/06 11:45:35;;;;;;;;;;;11.30;49.90;;;;;;5086981;28;19916;-68
2021/03/06 11:48:01;;;;;;;;;;;11.50;47.70;;;;;;5094292;28;19953;-67
2021/03/06 11:50:28;;;;;;;;;;;11.40;48.90;;;;;;5081359;28;19920;-67
2021/03/06 11:52:54;;;;;;;;;;;10.90;47.90;;;;;;5085208;28;19951;-67
2021/03/06 11:55:20;;;;;;;;;;;11.00;51.60;;;;;;5076188;28;19960;-67
2021/03/06 11:57:45;;;;;;;;;;;11.30;49.60;;;;;;5083309;28;20009;-67
2021/03/06 12:00:12;;;;;;;;;;;10.90;50.30;;;;;;5085585;28;19916;-69
2021/03/06 12:02:38;;;;;;;;;;;10.60;50.90;;;;;;5095548;28;20209;-69
2021/03/06 12:05:04;;;;;;;;;;;11.10;48.80;;;;;;5093265;28;19916;-69
2021/03/06 12:07:30;;;;;;;;;;;10.80;49.90;;;;;;5093237;28;19995;-69
2021/03/06 12:09:56;;;;;;;;;;;10.80;50.90;;;;;;5076980;28;20102;-69
2021/03/06 12:12:21;;;;;;;;;;;11.20;49.00;;;;;;5078873;28;19916;-69
2021/03/06 12:14:47;;;;;;;;;;;10.40;48.10;;;;;;5086220;28;20289;-69
2021/03/06 12:17:12;;;;;;;;;;;10.20;50.70;;;;;;5092213;28;20216;-69
2021/03/06 12:19:38;;;;;;;;;;;10.80;50.80;;;;;;5076773;28;20003;-68
2021/03/06 12:22:03;;;;;;;;;;;11.10;50.30;;;;;;5076810;28;19912;-68
2021/03/06 12:24:29;;;;;;;;;;;10.90;49.20;;;;;;5076718;28;19963;-67
2021/03/06 12:26:54;;;;;;;;;;;10.70;48.10;;;;;;5096339;28;19916;-67
2021/03/06 12:29:20;;;;;;;;;;;10.80;50.70;;;;;;5096741;28;19965;-69
2021/03/06 12:31:46;;;;;;;;;;;11.00;48.10;;;;;;5077301;28;20006;-68
2021/03/06 12:34:12;;;;;;;;;;;11.40;48.20;;;;;;5076365;28;20297;-68
2021/03/06 12:36:37;;;;;;;;;;;11.10;49.10;;;;;;5092532;28;19912;-67
2021/03/06 12:39:06;;;;;;;;;;;10.60;48.70;;;;;;5096760;28;19908;-67
2021/03/06 12:41:32;;;;;;;;;;;10.40;49.20;;;;;;5091222;28;19923;-68
2021/03/06 12:43:58;;;;;;;;;;;10.30;50.40;;;;;;5096429;28;19908;-68
2021/03/06 12:46:23;;;;;;;;;;;10.60;49.70;;;;;;5093749;28;20004;-68
2021/03/06 12:48:49;;;;;;;;;;;10.10;49.60;;;;;;5089734;28;20168;-68
2021/03/06 12:51:15;;;;;;;;;;;10.30;50.10;;;;;;5076365;28;19908;-68
2021/03/06 12:53:40;;;;;;;;;;;10.40;46.80;;;;;;5080037;28;19912;-67
2021/03/06 12:56:07;;;;;;;;;;;10.20;50.20;;;;;;5096415;28;19951;-66
2021/03/06 12:58:32;;;;;;;;;;;10.60;50.40;;;;;;5094623;28;19962;-68
2021/03/06 13:00:58;;;;;;;;;;;11.00;51.00;;;;;;5093324;28;20246;-68
2021/03/06 13:03:23;;;;;;;;;;;10.70;50.90;;;;;;5115364;28;19908;-68
2021/03/06 13:05:49;;;;;;;;;;;10.80;50.90;;;;;;5096012;28;19920;-68
2021/03/06 13:08:14;;;;;;;;;;;11.10;49.30;;;;;;5086014;28;19919;-67
2021/03/06 13:10:40;;;;;;;;;;;10.70;50.50;;;;;;5075976;28;19920;-67
2021/03/06 13:13:05;;;;;;;;;;;10.10;48.30;;;;;;5076020;28;20308;-67
2021/03/06 13:15:31;;;;;;;;;;;9.70;49.80;;;;;;5075861;28;19920;-68
2021/03/06 13:17:58;;;;;;;;;;;9.70;49.60;;;;;;5075336;28;20386;-67
2021/03/06 13:20:23;;;;;;;;;;;9.80;50.50;;;;;;5076679;28;19923;-68
2021/03/06 13:22:49;;;;;;;;;;;9.80;49.60;;;;;;5095058;28;20229;-67
2021/03/06 13:25:14;;;;;;;;;;;9.60;49.30;;;;;;5090971;28;19979;-68
2021/03/06 13:27:40;;;;;;;;;;;9.30;50.20;;;;;;5075746;28;19912;-68
2021/03/06 13:30:07;;;;;;;;;;;9.30;52.10;;;;;;5075047;28;20003;-68
2021/03/06 13:32:32;;;;;;;;;;;9.40;52.70;;;;;;5075789;28;19916;-68
2021/03/06 13:34:58;;;;;;;;;;;9.90;52.60;;;;;;5075722;28;19908;-67
2021/03/06 13:37:24;;;;;;;;;;;10.10;51.70;;;;;;5075816;28;19909;-68
2021/03/06 13:39:49;;;;;;;;;;;10.00;50.60;;;;;;5075728;28;19916;-68
2021/03/06 13:42:14;;;;;;;;;;;9.80;51.30;;;;;;5075455;28;19927;-68
2021/03/06 13:44:40;;;;;;;;;;;9.50;49.90;;;;;;5076177;28;19952;-68
2021/03/06 13:47:06;;;;;;;;;;;9.20;51.90;;;;;;5086559;28;20331;-68
2021/03/06 13:49:31;;;;;;;;;;;9.00;50.80;;;;;;5091520;28;19943;-67
2021/03/06 13:51:57;;;;;;;;;;;9.10;52.80;;;;;;5075564;28;19908;-68
2021/03/06 13:54:22;;;;;;;;;;;9.00;52.90;;;;;;5075518;28;19967;-67
2021/03/06 13:56:48;;;;;;;;;;;8.90;53.60;;;;;;5075383;28;19919;-67
2021/03/06 13:59:13;;;;;;;;;;;9.30;54.40;;;;;;5075469;28;19939;-67
2021/03/06 14:01:39;;;;;;;;;;;9.30;50.90;;;;;;5074489;28;19978;-67
2021/03/06 14:04:04;;;;;;;;;;;9.00;53.30;;;;;;5075240;28;19916;-67
2021/03/06 14:06:31;;;;;;;;;;;9.40;53.10;;;;;;5075331;28;19912;-67
2021/03/06 14:08:56;;;;;;;;;;;9.70;52.00;;;;;;5075415;28;20033;-67
2021/03/06 14:11:22;;;;;;;;;;;9.40;50.50;;;;;;5074233;28;19967;-67
2021/03/06 14:13:47;;;;;;;;;;;9.60;51.20;;;;;;5085239;28;20003;-67
2021/03/06 14:16:13;;;;;;;;;;;9.60;51.50;;;;;;5093419;28;19978;-67
2021/03/06 14:18:39;;;;;;;;;;;10.00;48.70;;;;;;5076257;28;19912;-67
2021/03/06 14:21:05;;;;;;;;;;;9.80;49.50;;;;;;5079168;28;19958;-67
2021/03/06 14:23:30;;;;;;;;;;;9.60;51.40;;;;;;5078965;28;19913;-68